Allerton, IL

4:41 PM CDT on September 16, 2014 (GMT -0500)
KILVILLA4 | Change Station
CLOSE
Current Station
Personal Weather Station
Location: Villa Grove, IL
Elevation: 666 ft
Nearby Weather Stations

Elev 666 ft 39.91 °N, 88.14 °W | Updated 4 minutes ago

Mostly Cloudy
Mostly Cloudy
70.6 °F
Feels Like 77 °F
N
0.0
Wind Variable Wind from ENE
Gusts 4.0 mph

Today
High -- | Low -- °F
--% Chance of Precip.
Yesterday
High -- | Low -- °F
Precip. -- in
6:33 AM 6:58 PM
Last Quarter, 42% visible
Pressure 30.12 in
Visibility 10.0 miles
Clouds Clear
Heat Index 77 °F
Dew Point 50 °F
Humidity 48%
Rainfall 0.00 in
Snow Depth Not available.
UV 4 out of 12
Pollen 5.60 out of 12
Air Quality Not available.
Flu Activity Not available.
METAR KCMI 162053Z VRB03KT 10SM CLR 20/09 A3013 RMK AO2 SLP200 T02000094 58021 $

More Conditions Fewer Conditions

Pressure 30.12 in
Visibility 10.0 miles
Clouds Clear
Heat Index 77 °F
Dew Point 50 °F
Humidity 48%
Rainfall 0.00 in
Snow Depth Not available.
UV 4 out of 12
Pollen 5.60 out of 12
Air Quality Not available.
Flu Activity Not available.
METAR KCMI 162053Z VRB03KT 10SM CLR 20/09 A3013 RMK AO2 SLP200 T02000094 58021 $

More Conditions Fewer Conditions

10-Day Weather Forecast

Almanac

Astronomy

Sep. 16, 2014 Rise Set
Actual Time 6:33 AM CDT 6:58 PM CDT
Civil Twilight 6:06 AM CDT 7:25 PM CDT
Nautical Twilight 5:34 AM CDT 7:57 PM CDT
Astronomical Twilight 5:01 AM CDT 8:30 PM CDT
Moon No Moon Rise 2:21 PM CDT
Length of Visible Light 13h 19m
Length of Day
12h 25m
Tomorrow will be 2m 35s shorter.
Last Quarter, 42% of the Moon is Illuminated
Today
Last Quarter
Sep 24
New
Oct 1
First Quarter
Oct 8
Full
Oct 15
Last Quarter

Today's Extremes

State Highs State Lows

Community

WunderPhotos

Upload Photos

1,753,895 photos uploaded!

Nearby

Snow Depth

Station Depth Elevation
No new snow has been reported.

Earthquake Activity

City Distance Mag. Time & Date
No recent earthquake activity has been reported nearby.
Minimum magnitude displayed is 2.5.

Coastal Water Temperatures

Place Temperature
No Stations Reporting

Nearby Weather Stations